sensor_id;sensor_type;location;lat;lon;timestamp;temperature;humidity
64468;DHT22;50853;46.836;16.820;2024-02-23T00:01:04;10.20;90.90
64468;DHT22;50853;46.836;16.820;2024-02-23T00:03:30;10.20;90.90
64468;DHT22;50853;46.836;16.820;2024-02-23T00:05:57;10.20;90.90
64468;DHT22;50853;46.836;16.820;2024-02-23T00:08:23;10.20;91.00
64468;DHT22;50853;46.836;16.820;2024-02-23T00:10:48;10.20;91.00
64468;DHT22;50853;46.836;16.820;2024-02-23T00:13:14;10.20;91.00
64468;DHT22;50853;46.836;16.820;2024-02-23T00:15:40;10.20;91.00
64468;DHT22;50853;46.836;16.820;2024-02-23T00:18:06;10.20;91.00
64468;DHT22;50853;46.836;16.820;2024-02-23T00:20:32;10.20;91.00
64468;DHT22;50853;46.836;16.820;2024-02-23T00:22:58;10.20;91.00
64468;DHT22;50853;46.836;16.820;2024-02-23T00:25:23;10.20;91.00
64468;DHT22;50853;46.836;16.820;2024-02-23T00:27:49;10.20;91.00
64468;DHT22;50853;46.836;16.820;2024-02-23T00:30:15;10.20;91.00
64468;DHT22;50853;46.836;16.820;2024-02-23T00:32:41;10.20;91.00
64468;DHT22;50853;46.836;16.820;2024-02-23T00:35:07;10.20;91.00
64468;DHT22;50853;46.836;16.820;2024-02-23T00:37:33;10.20;91.00
64468;DHT22;50853;46.836;16.820;2024-02-23T00:40:04;10.20;91.00
64468;DHT22;50853;46.836;16.820;2024-02-23T00:42:30;10.20;91.00
64468;DHT22;50853;46.836;16.820;2024-02-23T00:44:56;10.20;91.00
64468;DHT22;50853;46.836;16.820;2024-02-23T00:47:22;10.20;91.00
64468;DHT22;50853;46.836;16.820;2024-02-23T00:49:48;10.20;91.00
64468;DHT22;50853;46.836;16.820;2024-02-23T00:52:14;10.20;91.00
64468;DHT22;50853;46.836;16.820;2024-02-23T00:54:40;10.20;91.00
64468;DHT22;50853;46.836;16.820;2024-02-23T00:57:06;10.20;91.00
64468;DHT22;50853;46.836;16.820;2024-02-23T00:59:32;10.20;91.00
64468;DHT22;50853;46.836;16.820;2024-02-23T01:01:58;10.20;91.00
64468;DHT22;50853;46.836;16.820;2024-02-23T01:04:24;10.20;91.00
64468;DHT22;50853;46.836;16.820;2024-02-23T01:06:49;10.20;91.00
64468;DHT22;50853;46.836;16.820;2024-02-23T01:09:16;10.20;90.90
64468;DHT22;50853;46.836;16.820;2024-02-23T01:11:46;10.20;90.90
64468;DHT22;50853;46.836;16.820;2024-02-23T01:14:12;10.20;91.00
64468;DHT22;50853;46.836;16.820;2024-02-23T01:16:38;10.20;91.10
64468;DHT22;50853;46.836;16.820;2024-02-23T01:19:03;10.20;91.00
64468;DHT22;50853;46.836;16.820;2024-02-23T01:21:29;10.20;90.90
64468;DHT22;50853;46.836;16.820;2024-02-23T01:23:55;10.20;90.90
64468;DHT22;50853;46.836;16.820;2024-02-23T01:26:23;10.20;91.00
64468;DHT22;50853;46.836;16.820;2024-02-23T01:28:49;10.20;90.90
64468;DHT22;50853;46.836;16.820;2024-02-23T01:31:15;10.20;90.90
64468;DHT22;50853;46.836;16.820;2024-02-23T01:33:41;10.20;90.80
64468;DHT22;50853;46.836;16.820;2024-02-23T01:36:07;10.20;90.90
64468;DHT22;50853;46.836;16.820;2024-02-23T01:38:33;10.10;91.00
64468;DHT22;50853;46.836;16.820;2024-02-23T01:41:00;10.20;90.90
64468;DHT22;50853;46.836;16.820;2024-02-23T01:43:25;10.20;91.00
64468;DHT22;50853;46.836;16.820;2024-02-23T01:45:52;10.20;90.90
64468;DHT22;50853;46.836;16.820;2024-02-23T01:48:18;10.20;90.80
64468;DHT22;50853;46.836;16.820;2024-02-23T01:50:44;10.20;90.80
64468;DHT22;50853;46.836;16.820;2024-02-23T01:53:12;10.10;90.80
64468;DHT22;50853;46.836;16.820;2024-02-23T01:55:41;10.20;90.70
64468;DHT22;50853;46.836;16.820;2024-02-23T01:58:10;10.20;90.80
64468;DHT22;50853;46.836;16.820;2024-02-23T02:00:36;10.20;90.80
64468;DHT22;50853;46.836;16.820;2024-02-23T02:03:03;10.20;90.70
64468;DHT22;50853;46.836;16.820;2024-02-23T02:05:29;10.10;90.70
64468;DHT22;50853;46.836;16.820;2024-02-23T02:07:56;10.20;90.60
64468;DHT22;50853;46.836;16.820;2024-02-23T02:10:26;10.20;90.90
64468;DHT22;50853;46.836;16.820;2024-02-23T02:12:52;10.20;90.70
64468;DHT22;50853;46.836;16.820;2024-02-23T02:15:18;10.10;90.70
64468;DHT22;50853;46.836;16.820;2024-02-23T02:17:47;10.10;90.70
64468;DHT22;50853;46.836;16.820;2024-02-23T02:20:13;10.20;90.70
64468;DHT22;50853;46.836;16.820;2024-02-23T02:22:39;10.10;90.70
64468;DHT22;50853;46.836;16.820;2024-02-23T02:25:06;10.10;90.60
64468;DHT22;50853;46.836;16.820;2024-02-23T02:27:32;10.20;90.70
64468;DHT22;50853;46.836;16.820;2024-02-23T02:29:58;10.10;90.80
64468;DHT22;50853;46.836;16.820;2024-02-23T02:32:24;10.10;90.70
64468;DHT22;50853;46.836;16.820;2024-02-23T02:34:50;10.10;91.00
64468;DHT22;50853;46.836;16.820;2024-02-23T02:37:15;10.20;90.80
64468;DHT22;50853;46.836;16.820;2024-02-23T02:39:41;10.10;90.80
64468;DHT22;50853;46.836;16.820;2024-02-23T02:42:07;10.20;90.80
64468;DHT22;50853;46.836;16.820;2024-02-23T02:44:33;10.10;90.80
64468;DHT22;50853;46.836;16.820;2024-02-23T02:46:59;10.10;90.70
64468;DHT22;50853;46.836;16.820;2024-02-23T02:49:25;10.10;90.60
64468;DHT22;50853;46.836;16.820;2024-02-23T02:51:50;10.10;90.70
64468;DHT22;50853;46.836;16.820;2024-02-23T02:54:17;10.20;90.70
64468;DHT22;50853;46.836;16.820;2024-02-23T02:56:44;10.20;90.70
64468;DHT22;50853;46.836;16.820;2024-02-23T02:59:12;10.20;90.90
64468;DHT22;50853;46.836;16.820;2024-02-23T03:01:38;10.10;91.00
64468;DHT22;50853;46.836;16.820;2024-02-23T03:04:04;10.10;91.00
64468;DHT22;50853;46.836;16.820;2024-02-23T03:06:30;10.10;91.00
64468;DHT22;50853;46.836;16.820;2024-02-23T03:08:56;10.20;91.00
64468;DHT22;50853;46.836;16.820;2024-02-23T03:11:22;10.10;91.00
64468;DHT22;50853;46.836;16.820;2024-02-23T03:13:47;10.10;91.00
64468;DHT22;50853;46.836;16.820;2024-02-23T03:16:17;10.10;91.10
64468;DHT22;50853;46.836;16.820;2024-02-23T03:18:44;10.10;91.10
64468;DHT22;50853;46.836;16.820;2024-02-23T03:21:10;10.10;91.10
64468;DHT22;50853;46.836;16.820;2024-02-23T03:23:36;10.10;91.00
64468;DHT22;50853;46.836;16.820;2024-02-23T03:26:02;10.10;91.00
64468;DHT22;50853;46.836;16.820;2024-02-23T03:28:28;10.10;91.00
64468;DHT22;50853;46.836;16.820;2024-02-23T03:30:54;10.10;91.10
64468;DHT22;50853;46.836;16.820;2024-02-23T03:33:20;10.10;91.10
64468;DHT22;50853;46.836;16.820;2024-02-23T03:35:45;10.10;91.10
64468;DHT22;50853;46.836;16.820;2024-02-23T03:38:11;10.10;91.10
64468;DHT22;50853;46.836;16.820;2024-02-23T03:40:37;10.10;91.20
64468;DHT22;50853;46.836;16.820;2024-02-23T03:43:03;10.20;91.20
64468;DHT22;50853;46.836;16.820;2024-02-23T03:45:29;10.10;91.10
64468;DHT22;50853;46.836;16.820;2024-02-23T03:47:55;10.10;90.90
64468;DHT22;50853;46.836;16.820;2024-02-23T03:50:21;10.10;90.80
64468;DHT22;50853;46.836;16.820;2024-02-23T03:52:46;10.10;90.70
64468;DHT22;50853;46.836;16.820;2024-02-23T03:55:12;10.10;90.70
64468;DHT22;50853;46.836;16.820;2024-02-23T03:57:38;10.10;90.70
64468;DHT22;50853;46.836;16.820;2024-02-23T04:00:04;10.10;90.70
64468;DHT22;50853;46.836;16.820;2024-02-23T04:02:31;10.10;90.70
64468;DHT22;50853;46.836;16.820;2024-02-23T04:04:57;10.10;90.60
64468;DHT22;50853;46.836;16.820;2024-02-23T04:07:23;10.10;90.60
64468;DHT22;50853;46.836;16.820;2024-02-23T04:09:49;10.10;90.70
64468;DHT22;50853;46.836;16.820;2024-02-23T04:12:18;10.10;90.60
64468;DHT22;50853;46.836;16.820;2024-02-23T04:14:45;10.10;90.50
64468;DHT22;50853;46.836;16.820;2024-02-23T04:17:11;10.10;90.70
64468;DHT22;50853;46.836;16.820;2024-02-23T04:19:37;10.10;90.60
64468;DHT22;50853;46.836;16.820;2024-02-23T04:22:05;10.10;90.60
64468;DHT22;50853;46.836;16.820;2024-02-23T04:24:34;10.10;90.50
64468;DHT22;50853;46.836;16.820;2024-02-23T04:27:00;10.10;90.50
64468;DHT22;50853;46.836;16.820;2024-02-23T04:29:26;10.10;90.50
64468;DHT22;50853;46.836;16.820;2024-02-23T04:31:51;10.10;90.50
64468;DHT22;50853;46.836;16.820;2024-02-23T04:34:17;10.10;90.50
64468;DHT22;50853;46.836;16.820;2024-02-23T04:36:43;10.10;90.50
64468;DHT22;50853;46.836;16.820;2024-02-23T04:39:09;10.10;90.50
64468;DHT22;50853;46.836;16.820;2024-02-23T04:41:34;10.10;90.50
64468;DHT22;50853;46.836;16.820;2024-02-23T04:44:00;10.10;90.50
64468;DHT22;50853;46.836;16.820;2024-02-23T04:46:27;10.10;90.50
64468;DHT22;50853;46.836;16.820;2024-02-23T04:48:53;10.10;90.50
64468;DHT22;50853;46.836;16.820;2024-02-23T04:51:19;10.10;90.50
64468;DHT22;50853;46.836;16.820;2024-02-23T04:53:45;10.10;90.40
64468;DHT22;50853;46.836;16.820;2024-02-23T04:56:12;10.10;90.40
64468;DHT22;50853;46.836;16.820;2024-02-23T04:58:37;10.10;90.50
64468;DHT22;50853;46.836;16.820;2024-02-23T05:01:03;10.10;90.50
64468;DHT22;50853;46.836;16.820;2024-02-23T05:03:29;10.10;90.50
64468;DHT22;50853;46.836;16.820;2024-02-23T05:05:55;10.10;90.50
64468;DHT22;50853;46.836;16.820;2024-02-23T05:08:21;10.10;90.60
64468;DHT22;50853;46.836;16.820;2024-02-23T05:10:47;10.10;90.60
64468;DHT22;50853;46.836;16.820;2024-02-23T05:13:13;10.10;90.60
64468;DHT22;50853;46.836;16.820;2024-02-23T05:15:39;10.10;90.50
64468;DHT22;50853;46.836;16.820;2024-02-23T05:18:05;10.10;90.60
64468;DHT22;50853;46.836;16.820;2024-02-23T05:20:31;10.10;90.40
64468;DHT22;50853;46.836;16.820;2024-02-23T05:22:56;10.10;90.50
64468;DHT22;50853;46.836;16.820;2024-02-23T05:25:22;10.10;90.50
64468;DHT22;50853;46.836;16.820;2024-02-23T05:27:48;10.10;90.40
64468;DHT22;50853;46.836;16.820;2024-02-23T05:30:14;10.10;90.50
64468;DHT22;50853;46.836;16.820;2024-02-23T05:32:40;10.10;90.40
64468;DHT22;50853;46.836;16.820;2024-02-23T05:35:06;10.10;90.30
64468;DHT22;50853;46.836;16.820;2024-02-23T05:37:32;10.10;90.50
64468;DHT22;50853;46.836;16.820;2024-02-23T05:39:57;10.10;90.40
64468;DHT22;50853;46.836;16.820;2024-02-23T05:42:25;10.10;90.50
64468;DHT22;50853;46.836;16.820;2024-02-23T05:44:51;10.10;90.60
64468;DHT22;50853;46.836;16.820;2024-02-23T05:47:17;10.10;90.50
64468;DHT22;50853;46.836;16.820;2024-02-23T05:49:43;10.10;90.50
64468;DHT22;50853;46.836;16.820;2024-02-23T05:52:09;10.10;90.40
64468;DHT22;50853;46.836;16.820;2024-02-23T05:54:35;10.10;90.40
64468;DHT22;50853;46.836;16.820;2024-02-23T05:57:01;10.10;90.40
64468;DHT22;50853;46.836;16.820;2024-02-23T05:59:27;10.10;90.40
64468;DHT22;50853;46.836;16.820;2024-02-23T06:01:53;10.10;90.50
64468;DHT22;50853;46.836;16.820;2024-02-23T06:04:23;10.10;90.40
64468;DHT22;50853;46.836;16.820;2024-02-23T06:06:48;10.10;90.40
64468;DHT22;50853;46.836;16.820;2024-02-23T06:09:14;10.10;90.60
64468;DHT22;50853;46.836;16.820;2024-02-23T06:11:41;10.10;90.50
64468;DHT22;50853;46.836;16.820;2024-02-23T06:14:08;10.10;90.50
64468;DHT22;50853;46.836;16.820;2024-02-23T06:16:34;10.10;90.50
64468;DHT22;50853;46.836;16.820;2024-02-23T06:18:59;10.10;90.60
64468;DHT22;50853;46.836;16.820;2024-02-23T06:21:26;10.10;90.60
64468;DHT22;50853;46.836;16.820;2024-02-23T06:23:53;10.10;90.60
64468;DHT22;50853;46.836;16.820;2024-02-23T06:26:19;10.10;90.60
64468;DHT22;50853;46.836;16.820;2024-02-23T06:28:44;10.10;90.60
64468;DHT22;50853;46.836;16.820;2024-02-23T06:31:10;10.10;90.60
64468;DHT22;50853;46.836;16.820;2024-02-23T06:33:37;10.10;90.60
64468;DHT22;50853;46.836;16.820;2024-02-23T06:36:03;10.00;90.70
64468;DHT22;50853;46.836;16.820;2024-02-23T06:38:30;10.10;90.60
64468;DHT22;50853;46.836;16.820;2024-02-23T06:40:56;10.00;90.60
64468;DHT22;50853;46.836;16.820;2024-02-23T06:43:21;10.10;90.60
64468;DHT22;50853;46.836;16.820;2024-02-23T06:45:47;10.00;90.70
64468;DHT22;50853;46.836;16.820;2024-02-23T06:48:13;10.00;90.80
64468;DHT22;50853;46.836;16.820;2024-02-23T06:50:39;10.00;90.90
64468;DHT22;50853;46.836;16.820;2024-02-23T06:53:04;10.10;91.00
64468;DHT22;50853;46.836;16.820;2024-02-23T06:55:36;10.00;90.90
64468;DHT22;50853;46.836;16.820;2024-02-23T06:58:02;10.10;91.00
64468;DHT22;50853;46.836;16.820;2024-02-23T07:00:30;10.00;91.10
64468;DHT22;50853;46.836;16.820;2024-02-23T07:02:56;10.00;91.40
64468;DHT22;50853;46.836;16.820;2024-02-23T07:05:24;10.10;91.20
64468;DHT22;50853;46.836;16.820;2024-02-23T07:07:51;10.10;91.20
64468;DHT22;50853;46.836;16.820;2024-02-23T07:10:16;10.10;91.20
64468;DHT22;50853;46.836;16.820;2024-02-23T07:12:43;10.10;91.20
64468;DHT22;50853;46.836;16.820;2024-02-23T07:15:10;10.10;91.10
64468;DHT22;50853;46.836;16.820;2024-02-23T07:17:35;10.10;91.10
64468;DHT22;50853;46.836;16.820;2024-02-23T07:20:01;10.10;91.10
64468;DHT22;50853;46.836;16.820;2024-02-23T07:22:34;10.10;91.00
64468;DHT22;50853;46.836;16.820;2024-02-23T07:25:02;10.10;91.00
64468;DHT22;50853;46.836;16.820;2024-02-23T07:27:29;10.10;91.00
64468;DHT22;50853;46.836;16.820;2024-02-23T07:29:56;10.10;91.00
64468;DHT22;50853;46.836;16.820;2024-02-23T07:32:22;10.10;91.00
64468;DHT22;50853;46.836;16.820;2024-02-23T07:34:48;10.10;90.90
64468;DHT22;50853;46.836;16.820;2024-02-23T07:37:15;10.10;91.00
64468;DHT22;50853;46.836;16.820;2024-02-23T07:51:48;10.10;90.90
64468;DHT22;50853;46.836;16.820;2024-02-23T07:54:14;10.10;90.90
64468;DHT22;50853;46.836;16.820;2024-02-23T07:56:39;10.10;90.80
64468;DHT22;50853;46.836;16.820;2024-02-23T07:59:05;10.10;90.90
64468;DHT22;50853;46.836;16.820;2024-02-23T08:01:31;10.10;90.70
64468;DHT22;50853;46.836;16.820;2024-02-23T08:03:57;10.10;90.70
64468;DHT22;50853;46.836;16.820;2024-02-23T08:06:23;10.10;90.60
64468;DHT22;50853;46.836;16.820;2024-02-23T08:08:49;10.10;90.60
64468;DHT22;50853;46.836;16.820;2024-02-23T08:11:16;10.10;90.60
64468;DHT22;50853;46.836;16.820;2024-02-23T08:13:41;10.10;90.50
64468;DHT22;50853;46.836;16.820;2024-02-23T08:16:07;10.10;90.50
64468;DHT22;50853;46.836;16.820;2024-02-23T08:18:33;10.10;90.40
64468;DHT22;50853;46.836;16.820;2024-02-23T08:20:59;10.10;90.40
64468;DHT22;50853;46.836;16.820;2024-02-23T08:23:28;10.10;90.40
64468;DHT22;50853;46.836;16.820;2024-02-23T08:25:55;10.10;90.40
64468;DHT22;50853;46.836;16.820;2024-02-23T08:28:25;10.10;90.40
64468;DHT22;50853;46.836;16.820;2024-02-23T08:30:51;10.10;90.30
64468;DHT22;50853;46.836;16.820;2024-02-23T08:33:18;10.10;90.40
64468;DHT22;50853;46.836;16.820;2024-02-23T08:35:44;10.10;90.40
64468;DHT22;50853;46.836;16.820;2024-02-23T08:38:10;10.10;90.30
64468;DHT22;50853;46.836;16.820;2024-02-23T08:40:36;10.10;90.30
64468;DHT22;50853;46.836;16.820;2024-02-23T08:43:02;10.10;90.60
64468;DHT22;50853;46.836;16.820;2024-02-23T08:45:28;10.10;90.40
64468;DHT22;50853;46.836;16.820;2024-02-23T08:47:54;10.10;90.40
64468;DHT22;50853;46.836;16.820;2024-02-23T08:50:20;10.10;90.40
64468;DHT22;50853;46.836;16.820;2024-02-23T08:52:45;10.20;90.40
64468;DHT22;50853;46.836;16.820;2024-02-23T08:55:12;10.20;90.40
64468;DHT22;50853;46.836;16.820;2024-02-23T08:57:37;10.20;90.30
64468;DHT22;50853;46.836;16.820;2024-02-23T09:00:04;10.20;90.30
64468;DHT22;50853;46.836;16.820;2024-02-23T09:02:30;10.20;90.30
64468;DHT22;50853;46.836;16.820;2024-02-23T09:04:58;10.20;90.30
64468;DHT22;50853;46.836;16.820;2024-02-23T09:07:24;10.20;90.30
64468;DHT22;50853;46.836;16.820;2024-02-23T09:09:50;10.20;90.30
64468;DHT22;50853;46.836;16.820;2024-02-23T09:12:16;10.20;90.30
64468;DHT22;50853;46.836;16.820;2024-02-23T09:14:42;10.20;90.30
64468;DHT22;50853;46.836;16.820;2024-02-23T09:17:09;10.20;90.30
64468;DHT22;50853;46.836;16.820;2024-02-23T09:19:37;10.20;90.40
64468;DHT22;50853;46.836;16.820;2024-02-23T09:22:03;10.20;90.40
64468;DHT22;50853;46.836;16.820;2024-02-23T09:24:29;10.20;90.40
64468;DHT22;50853;46.836;16.820;2024-02-23T09:26:55;10.20;90.40
64468;DHT22;50853;46.836;16.820;2024-02-23T09:29:21;10.20;90.40
64468;DHT22;50853;46.836;16.820;2024-02-23T09:31:49;10.20;90.40
64468;DHT22;50853;46.836;16.820;2024-02-23T09:34:15;10.20;90.50
64468;DHT22;50853;46.836;16.820;2024-02-23T09:36:41;10.20;90.50
64468;DHT22;50853;46.836;16.820;2024-02-23T09:39:06;10.20;90.50
64468;DHT22;50853;46.836;16.820;2024-02-23T09:41:32;10.20;90.50
64468;DHT22;50853;46.836;16.820;2024-02-23T09:44:01;10.20;90.50
64468;DHT22;50853;46.836;16.820;2024-02-23T09:46:28;10.20;90.50
64468;DHT22;50853;46.836;16.820;2024-02-23T09:48:55;10.20;90.50
64468;DHT22;50853;46.836;16.820;2024-02-23T09:51:23;10.20;90.50
64468;DHT22;50853;46.836;16.820;2024-02-23T09:53:50;10.20;90.50
64468;DHT22;50853;46.836;16.820;2024-02-23T09:56:17;10.20;90.50
64468;DHT22;50853;46.836;16.820;2024-02-23T09:58:47;10.20;90.60
64468;DHT22;50853;46.836;16.820;2024-02-23T10:01:20;10.20;90.60
64468;DHT22;50853;46.836;16.820;2024-02-23T10:03:51;10.20;90.60
64468;DHT22;50853;46.836;16.820;2024-02-23T10:06:17;10.20;90.60
64468;DHT22;50853;46.836;16.820;2024-02-23T10:08:43;10.20;90.60
64468;DHT22;50853;46.836;16.820;2024-02-23T10:11:08;10.20;90.60
64468;DHT22;50853;46.836;16.820;2024-02-23T10:13:34;10.20;90.70
64468;DHT22;50853;46.836;16.820;2024-02-23T10:16:00;10.20;90.70
64468;DHT22;50853;46.836;16.820;2024-02-23T10:18:26;10.20;90.70
64468;DHT22;50853;46.836;16.820;2024-02-23T10:20:52;10.20;90.70
64468;DHT22;50853;46.836;16.820;2024-02-23T10:23:19;10.20;90.70
64468;DHT22;50853;46.836;16.820;2024-02-23T10:25:45;10.20;90.70
64468;DHT22;50853;46.836;16.820;2024-02-23T10:28:11;10.20;90.70
64468;DHT22;50853;46.836;16.820;2024-02-23T10:30:37;10.20;90.70
64468;DHT22;50853;46.836;16.820;2024-02-23T10:33:05;10.20;90.70
64468;DHT22;50853;46.836;16.820;2024-02-23T10:35:32;10.20;90.70
64468;DHT22;50853;46.836;16.820;2024-02-23T10:38:01;10.20;90.70
64468;DHT22;50853;46.836;16.820;2024-02-23T10:40:30;10.20;90.70
64468;DHT22;50853;46.836;16.820;2024-02-23T10:43:00;10.20;90.70
64468;DHT22;50853;46.836;16.820;2024-02-23T10:45:29;10.20;90.70
64468;DHT22;50853;46.836;16.820;2024-02-23T10:47:55;10.20;90.70
64468;DHT22;50853;46.836;16.820;2024-02-23T10:50:22;10.20;90.70
64468;DHT22;50853;46.836;16.820;2024-02-23T10:52:52;10.20;90.70
64468;DHT22;50853;46.836;16.820;2024-02-23T10:55:20;10.20;90.70
64468;DHT22;50853;46.836;16.820;2024-02-23T10:57:48;10.20;90.70
64468;DHT22;50853;46.836;16.820;2024-02-23T11:00:13;10.20;90.70
64468;DHT22;50853;46.836;16.820;2024-02-23T11:02:50;10.20;90.70
64468;DHT22;50853;46.836;16.820;2024-02-23T11:05:18;10.20;90.70
64468;DHT22;50853;46.836;16.820;2024-02-23T11:07:47;10.20;90.70
64468;DHT22;50853;46.836;16.820;2024-02-23T11:10:17;10.20;90.70
64468;DHT22;50853;46.836;16.820;2024-02-23T11:12:44;10.20;90.70
64468;DHT22;50853;46.836;16.820;2024-02-23T11:15:28;10.20;90.80
64468;DHT22;50853;46.836;16.820;2024-02-23T11:17:55;10.20;90.70
64468;DHT22;50853;46.836;16.820;2024-02-23T11:20:21;10.20;90.80
64468;DHT22;50853;46.836;16.820;2024-02-23T11:22:54;10.20;90.70
64468;DHT22;50853;46.836;16.820;2024-02-23T11:25:20;10.20;90.70
64468;DHT22;50853;46.836;16.820;2024-02-23T11:27:52;10.20;90.70
64468;DHT22;50853;46.836;16.820;2024-02-23T11:30:18;10.20;90.80
64468;DHT22;50853;46.836;16.820;2024-02-23T11:32:46;10.20;90.80
64468;DHT22;50853;46.836;16.820;2024-02-23T11:35:14;10.20;90.80
64468;DHT22;50853;46.836;16.820;2024-02-23T11:37:55;10.20;90.80
64468;DHT22;50853;46.836;16.820;2024-02-23T11:40:30;10.20;90.80
64468;DHT22;50853;46.836;16.820;2024-02-23T11:42:57;10.20;90.80
64468;DHT22;50853;46.836;16.820;2024-02-23T11:45:24;10.20;90.80
64468;DHT22;50853;46.836;16.820;2024-02-23T11:47:50;10.20;90.80
64468;DHT22;50853;46.836;16.820;2024-02-23T11:50:16;10.20;90.70
64468;DHT22;50853;46.836;16.820;2024-02-23T11:52:45;10.20;90.70
64468;DHT22;50853;46.836;16.820;2024-02-23T11:55:11;10.20;90.70
64468;DHT22;50853;46.836;16.820;2024-02-23T11:57:38;10.20;90.70
64468;DHT22;50853;46.836;16.820;2024-02-23T12:00:05;10.20;90.70
64468;DHT22;50853;46.836;16.820;2024-02-23T12:02:37;10.20;90.70
64468;DHT22;50853;46.836;16.820;2024-02-23T12:05:03;10.20;90.70
64468;DHT22;50853;46.836;16.820;2024-02-23T12:07:30;10.20;90.60
64468;DHT22;50853;46.836;16.820;2024-02-23T12:09:57;10.10;90.60
64468;DHT22;50853;46.836;16.820;2024-02-23T12:12:25;10.20;90.60
64468;DHT22;50853;46.836;16.820;2024-02-23T12:14:52;10.20;90.60
64468;DHT22;50853;46.836;16.820;2024-02-23T12:17:17;10.20;90.60
64468;DHT22;50853;46.836;16.820;2024-02-23T12:19:43;10.20;90.60
64468;DHT22;50853;46.836;16.820;2024-02-23T12:22:10;10.20;90.50
64468;DHT22;50853;46.836;16.820;2024-02-23T12:24:41;10.20;90.50
64468;DHT22;50853;46.836;16.820;2024-02-23T12:27:07;10.10;90.50
64468;DHT22;50853;46.836;16.820;2024-02-23T12:29:33;10.10;90.50
64468;DHT22;50853;46.836;16.820;2024-02-23T12:32:05;10.20;90.50
64468;DHT22;50853;46.836;16.820;2024-02-23T12:34:32;10.20;90.40
64468;DHT22;50853;46.836;16.820;2024-02-23T12:36:57;10.20;90.40
64468;DHT22;50853;46.836;16.820;2024-02-23T12:39:23;10.20;90.40
64468;DHT22;50853;46.836;16.820;2024-02-23T12:41:49;10.20;90.40
64468;DHT22;50853;46.836;16.820;2024-02-23T12:44:16;10.20;90.30
64468;DHT22;50853;46.836;16.820;2024-02-23T12:46:42;10.20;90.40
64468;DHT22;50853;46.836;16.820;2024-02-23T12:49:08;10.20;90.40
64468;DHT22;50853;46.836;16.820;2024-02-23T12:51:34;10.10;90.40
64468;DHT22;50853;46.836;16.820;2024-02-23T12:54:00;10.10;90.40
64468;DHT22;50853;46.836;16.820;2024-02-23T12:56:26;10.20;90.30
64468;DHT22;50853;46.836;16.820;2024-02-23T12:58:52;10.20;90.40
64468;DHT22;50853;46.836;16.820;2024-02-23T13:01:19;10.10;90.40
64468;DHT22;50853;46.836;16.820;2024-02-23T13:03:45;10.10;90.40
64468;DHT22;50853;46.836;16.820;2024-02-23T13:06:11;10.20;90.40
64468;DHT22;50853;46.836;16.820;2024-02-23T13:08:38;10.10;90.30
64468;DHT22;50853;46.836;16.820;2024-02-23T13:11:06;10.20;90.30
64468;DHT22;50853;46.836;16.820;2024-02-23T13:13:32;10.20;90.30
64468;DHT22;50853;46.836;16.820;2024-02-23T13:15:58;10.10;90.20
64468;DHT22;50853;46.836;16.820;2024-02-23T13:18:24;10.10;90.20
64468;DHT22;50853;46.836;16.820;2024-02-23T13:20:50;10.10;90.30
64468;DHT22;50853;46.836;16.820;2024-02-23T13:23:16;10.10;90.20
64468;DHT22;50853;46.836;16.820;2024-02-23T13:25:42;10.20;90.20
64468;DHT22;50853;46.836;16.820;2024-02-23T13:28:09;10.10;90.20
64468;DHT22;50853;46.836;16.820;2024-02-23T13:30:35;10.20;90.20
64468;DHT22;50853;46.836;16.820;2024-02-23T13:33:02;10.20;90.20
64468;DHT22;50853;46.836;16.820;2024-02-23T13:35:28;10.10;90.10
64468;DHT22;50853;46.836;16.820;2024-02-23T13:37:54;10.20;90.20
64468;DHT22;50853;46.836;16.820;2024-02-23T13:40:20;10.20;90.10
64468;DHT22;50853;46.836;16.820;2024-02-23T13:42:46;10.10;90.10
64468;DHT22;50853;46.836;16.820;2024-02-23T13:45:15;10.10;90.10
64468;DHT22;50853;46.836;16.820;2024-02-23T13:47:42;10.10;90.00
64468;DHT22;50853;46.836;16.820;2024-02-23T13:50:10;10.10;90.00
64468;DHT22;50853;46.836;16.820;2024-02-23T13:52:36;10.10;90.00
64468;DHT22;50853;46.836;16.820;2024-02-23T13:55:03;10.10;90.10
64468;DHT22;50853;46.836;16.820;2024-02-23T13:57:29;10.20;88.90
64468;DHT22;50853;46.836;16.820;2024-02-23T13:59:55;10.20;84.80
64468;DHT22;50853;46.836;16.820;2024-02-23T14:02:26;10.20;83.30
64468;DHT22;50853;46.836;16.820;2024-02-23T14:05:01;10.30;86.40
64468;DHT22;50853;46.836;16.820;2024-02-23T14:07:35;10.30;87.40
64468;DHT22;50853;46.836;16.820;2024-02-23T14:10:01;10.40;86.90
64468;DHT22;50853;46.836;16.820;2024-02-23T14:12:29;10.40;86.40
64468;DHT22;50853;46.836;16.820;2024-02-23T14:14:57;10.50;85.20
64468;DHT22;50853;46.836;16.820;2024-02-23T14:17:24;10.50;84.50
64468;DHT22;50853;46.836;16.820;2024-02-23T14:19:50;10.50;82.70
64468;DHT22;50853;46.836;16.820;2024-02-23T14:22:16;10.50;83.70
64468;DHT22;50853;46.836;16.820;2024-02-23T14:24:43;10.60;82.90
64468;DHT22;50853;46.836;16.820;2024-02-23T14:27:08;10.60;84.10
64468;DHT22;50853;46.836;16.820;2024-02-23T14:29:34;10.60;84.10
64468;DHT22;50853;46.836;16.820;2024-02-23T14:32:00;10.60;83.30
64468;DHT22;50853;46.836;16.820;2024-02-23T14:34:27;10.60;82.50
64468;DHT22;50853;46.836;16.820;2024-02-23T14:36:53;10.60;82.10
64468;DHT22;50853;46.836;16.820;2024-02-23T14:39:19;10.70;80.80
64468;DHT22;50853;46.836;16.820;2024-02-23T14:41:45;10.70;80.90
64468;DHT22;50853;46.836;16.820;2024-02-23T14:44:10;10.70;80.70
64468;DHT22;50853;46.836;16.820;2024-02-23T14:46:36;10.70;80.30
64468;DHT22;50853;46.836;16.820;2024-02-23T14:49:02;10.80;79.60
64468;DHT22;50853;46.836;16.820;2024-02-23T14:51:28;10.80;79.00
64468;DHT22;50853;46.836;16.820;2024-02-23T14:53:55;10.80;78.60
64468;DHT22;50853;46.836;16.820;2024-02-23T14:56:21;10.80;78.20
64468;DHT22;50853;46.836;16.820;2024-02-23T14:58:47;10.90;76.90
64468;DHT22;50853;46.836;16.820;2024-02-23T15:01:13;10.90;77.00
64468;DHT22;50853;46.836;16.820;2024-02-23T15:03:39;10.90;76.40
64468;DHT22;50853;46.836;16.820;2024-02-23T15:06:05;10.90;77.90
64468;DHT22;50853;46.836;16.820;2024-02-23T15:08:31;10.90;79.30
64468;DHT22;50853;46.836;16.820;2024-02-23T15:10:56;10.90;78.90
64468;DHT22;50853;46.836;16.820;2024-02-23T15:13:23;10.80;79.20
64468;DHT22;50853;46.836;16.820;2024-02-23T15:15:48;10.80;79.70
64468;DHT22;50853;46.836;16.820;2024-02-23T15:18:14;10.80;79.90
64468;DHT22;50853;46.836;16.820;2024-02-23T15:20:40;10.80;80.40
64468;DHT22;50853;46.836;16.820;2024-02-23T15:23:06;10.70;80.70